Time;durP1;ratioP1;P1;durP2;ratioP2;P2;SDS_P1;SDS_P2;PMS_P1;PMS_P2;Temp;Humidity;BMP_temperature;BMP_pressure;BME280_temperature;BME280_humidity;BME280_pressure;Samples;Min_cycle;Max_cycle;Signal;HPM_P1;HPM_P2
2022/10/22 00:01:29;;;;;;;31.88;16.95;;;;;;;;;;8400565;28;20563;-85
2022/10/22 00:05:31;;;;;;;33.65;17.17;;;;;;;;;;8372693;28;20476;-85
2022/10/22 00:09:33;;;;;;;32.97;17.70;;;;;;;;;;8372161;28;20044;-85
2022/10/22 00:13:37;;;;;;;35.72;18.10;;;;;;;;;;8400489;28;20040;-85
2022/10/22 00:17:40;;;;;;;36.33;18.50;;;;;;;;;;8383956;28;20036;-86
2022/10/22 00:21:42;;;;;;;31.40;16.48;;;;;;;;;;8361510;28;20044;-87
2022/10/22 00:25:45;;;;;;;32.05;16.90;;;;;;;;;;8367185;28;20476;-87
2022/10/22 00:29:49;;;;;;;31.58;16.88;;;;;;;;;;8366591;28;20056;-86
2022/10/22 00:33:51;;;;;;;30.30;16.70;;;;;;;;;;8368610;28;20385;-85
2022/10/22 00:37:54;;;;;;;33.17;17.25;;;;;;;;;;8363529;28;20044;-86
2022/10/22 00:41:58;;;;;;;23.02;13.68;;;;;;;;;;8360224;28;20120;-86
2022/10/22 00:46:02;;;;;;;31.45;16.02;;;;;;;;;;8361723;28;20044;-87
2022/10/22 00:50:07;;;;;;;29.77;16.98;;;;;;;;;;8359314;28;20048;-87
2022/10/22 00:54:10;;;;;;;30.17;15.15;;;;;;;;;;8348131;28;20053;-86
2022/10/22 00:58:13;;;;;;;30.83;15.95;;;;;;;;;;8330805;28;20152;-85
2022/10/22 01:02:18;;;;;;;30.60;14.75;;;;;;;;;;8331702;28;20489;-85
2022/10/22 01:06:24;;;;;;;32.08;16.35;;;;;;;;;;8329036;28;20045;-84
2022/10/22 01:10:43;;;;;;;27.40;15.45;;;;;;;;;;8328707;28;20045;-86
2022/10/22 01:15:01;;;;;;;28.27;15.45;;;;;;;;;;8331260;28;20064;-86
2022/10/22 01:19:25;;;;;;;30.48;16.33;;;;;;;;;;8327379;28;20037;-85
2022/10/22 01:23:47;;;;;;;30.70;15.57;;;;;;;;;;8323665;28;20100;-86
2022/10/22 01:28:01;;;;;;;31.83;14.80;;;;;;;;;;8326972;28;20046;-86
2022/10/22 01:32:10;;;;;;;27.13;14.52;;;;;;;;;;8330985;28;20037;-86
2022/10/22 01:36:14;;;;;;;27.75;15.13;;;;;;;;;;8328623;28;20050;-85
2022/10/22 01:40:18;;;;;;;26.15;14.13;;;;;;;;;;8328283;28;20052;-85
2022/10/22 01:44:26;;;;;;;26.83;15.73;;;;;;;;;;8325996;28;20504;-86
2022/10/22 01:48:38;;;;;;;28.75;15.18;;;;;;;;;;8325205;28;20129;-85
2022/10/22 01:52:57;;;;;;;27.77;14.93;;;;;;;;;;8327684;28;20045;-86
2022/10/22 01:57:09;;;;;;;31.02;14.80;;;;;;;;;;8338064;28;20049;-85
2022/10/22 02:01:22;;;;;;;25.63;13.68;;;;;;;;;;8363299;28;20037;-85
2022/10/22 02:05:30;;;;;;;25.40;13.50;;;;;;;;;;8344546;28;20049;-86
2022/10/22 02:09:35;;;;;;;27.20;16.27;;;;;;;;;;8324458;28;20037;-86
2022/10/22 02:13:41;;;;;;;27.15;14.43;;;;;;;;;;8331338;28;20050;-86
2022/10/22 02:17:46;;;;;;;27.88;14.55;;;;;;;;;;8331713;28;20037;-86
2022/10/22 02:21:53;;;;;;;25.48;14.82;;;;;;;;;;8310192;28;20160;-86
2022/10/22 02:26:02;;;;;;;30.55;14.02;;;;;;;;;;8362736;28;20063;-85
2022/10/22 02:30:08;;;;;;;27.38;13.50;;;;;;;;;;8363009;28;20116;-85
2022/10/22 02:34:14;;;;;;;29.35;14.48;;;;;;;;;;8360136;28;20503;-85
2022/10/22 02:38:19;;;;;;;26.75;13.45;;;;;;;;;;8324149;28;20078;-87
2022/10/22 02:42:22;;;;;;;28.05;13.30;;;;;;;;;;8362520;28;20106;-86
2022/10/22 02:46:26;;;;;;;24.23;13.70;;;;;;;;;;8362590;28;20465;-85
2022/10/22 02:50:28;;;;;;;27.27;14.20;;;;;;;;;;8362422;28;20045;-85
2022/10/22 02:54:32;;;;;;;29.75;14.32;;;;;;;;;;8377983;28;20063;-85
2022/10/22 02:58:35;;;;;;;25.38;13.65;;;;;;;;;;8377701;28;20052;-85
2022/10/22 03:02:38;;;;;;;28.15;15.23;;;;;;;;;;8395378;28;20059;-86
2022/10/22 03:06:42;;;;;;;28.92;14.88;;;;;;;;;;8395367;28;20451;-85
2022/10/22 03:10:46;;;;;;;27.58;14.55;;;;;;;;;;8395444;28;20044;-85
2022/10/22 03:14:48;;;;;;;26.88;15.85;;;;;;;;;;8395235;28;20048;-85
2022/10/22 03:18:51;;;;;;;31.80;16.27;;;;;;;;;;8395206;28;20127;-85
2022/10/22 03:22:53;;;;;;;31.08;17.17;;;;;;;;;;8376526;28;20102;-85
2022/10/22 03:26:58;;;;;;;38.72;16.75;;;;;;;;;;8368959;28;20056;-86
2022/10/22 03:31:00;;;;;;;32.83;15.57;;;;;;;;;;8394092;28;20041;-86
2022/10/22 03:35:04;;;;;;;30.27;16.23;;;;;;;;;;8399553;28;20068;-86
2022/10/22 03:39:07;;;;;;;40.78;26.55;;;;;;;;;;8401321;28;20044;-86
2022/10/22 03:43:11;;;;;;;31.58;16.50;;;;;;;;;;8401445;28;20040;-85
2022/10/22 03:47:14;;;;;;;37.30;22.98;;;;;;;;;;8383813;28;20049;-86
2022/10/22 03:51:16;;;;;;;32.70;19.42;;;;;;;;;;8400938;28;20115;-85
2022/10/22 03:55:19;;;;;;;30.67;18.17;;;;;;;;;;8363795;28;20049;-86
2022/10/22 03:59:22;;;;;;;26.27;15.02;;;;;;;;;;8395556;28;20068;-86
2022/10/22 04:03:25;;;;;;;26.67;15.95;;;;;;;;;;8367260;28;20041;-86
2022/10/22 04:07:28;;;;;;;29.50;15.25;;;;;;;;;;8367564;28;20488;-85
2022/10/22 04:11:30;;;;;;;27.98;15.77;;;;;;;;;;8397303;28;20475;-86
2022/10/22 04:15:34;;;;;;;25.33;12.02;;;;;;;;;;8385917;28;20072;-85
2022/10/22 04:19:36;;;;;;;23.63;13.35;;;;;;;;;;8362199;28;20054;-85
2022/10/22 04:23:39;;;;;;;25.73;15.32;;;;;;;;;;8379294;28;20403;-85
2022/10/22 04:27:42;;;;;;;23.27;13.43;;;;;;;;;;8395823;28;20407;-85
2022/10/22 04:31:45;;;;;;;24.83;13.93;;;;;;;;;;8399745;28;20464;-86
2022/10/22 04:35:48;;;;;;;21.13;12.07;;;;;;;;;;8399885;28;20048;-86
2022/10/22 04:39:50;;;;;;;26.08;13.23;;;;;;;;;;8399535;28;20123;-85
2022/10/22 04:43:54;;;;;;;26.67;14.48;;;;;;;;;;8386290;28;20099;-86
2022/10/22 04:47:58;;;;;;;27.80;13.27;;;;;;;;;;8365808;28;20040;-85
2022/10/22 04:52:00;;;;;;;29.42;12.95;;;;;;;;;;8365975;28;20048;-85
2022/10/22 04:56:12;;;;;;;25.02;12.55;;;;;;;;;;8365805;28;20063;-85
2022/10/22 05:00:16;;;;;;;20.73;13.05;;;;;;;;;;8365921;28;20049;-86
2022/10/22 05:04:19;;;;;;;22.95;11.48;;;;;;;;;;8376844;28;20052;-86
2022/10/22 05:08:22;;;;;;;22.70;11.82;;;;;;;;;;8372016;28;20041;-86
2022/10/22 05:12:24;;;;;;;20.63;12.80;;;;;;;;;;8365517;28;20060;-86
2022/10/22 05:16:28;;;;;;;22.45;12.13;;;;;;;;;;8365035;28;20051;-85
2022/10/22 05:20:32;;;;;;;24.10;12.80;;;;;;;;;;8364776;28;20404;-85
2022/10/22 05:24:35;;;;;;;20.77;12.32;;;;;;;;;;8372368;28;20055;-87
2022/10/22 05:28:38;;;;;;;18.15;11.50;;;;;;;;;;8359331;28;20094;-86
2022/10/22 05:32:41;;;;;;;21.67;12.30;;;;;;;;;;8389125;28;20041;-85
2022/10/22 05:36:45;;;;;;;25.15;12.70;;;;;;;;;;8362872;28;20470;-85
2022/10/22 05:40:48;;;;;;;22.42;11.68;;;;;;;;;;8397517;28;20049;-86
2022/10/22 05:44:50;;;;;;;19.42;11.35;;;;;;;;;;8397494;28;20494;-86
2022/10/22 05:48:53;;;;;;;20.90;11.60;;;;;;;;;;8397219;28;20115;-86
2022/10/22 05:52:57;;;;;;;22.00;11.00;;;;;;;;;;8352661;28;20049;-86
2022/10/22 05:57:00;;;;;;;18.42;11.40;;;;;;;;;;8385250;28;20076;-86
2022/10/22 06:01:03;;;;;;;20.58;10.88;;;;;;;;;;8396976;28;20075;-86
2022/10/22 06:05:06;;;;;;;20.33;10.48;;;;;;;;;;8396592;28;20052;-86
2022/10/22 06:09:16;;;;;;;17.70;10.43;;;;;;;;;;8358872;28;20056;-87
2022/10/22 06:13:18;;;;;;;17.45;9.85;;;;;;;;;;8362912;28;20049;-86
2022/10/22 06:17:21;;;;;;;17.45;10.20;;;;;;;;;;8359175;28;20044;-86
2022/10/22 06:21:23;;;;;;;22.55;10.40;;;;;;;;;;8367491;28;20049;-86
2022/10/22 06:25:27;;;;;;;16.55;10.30;;;;;;;;;;8381541;28;20458;-85
2022/10/22 06:29:30;;;;;;;17.20;10.48;;;;;;;;;;8360832;28;20480;-85
2022/10/22 06:33:36;;;;;;;17.17;9.85;;;;;;;;;;8385610;28;20060;-85
2022/10/22 06:37:38;;;;;;;17.17;10.27;;;;;;;;;;8392504;28;20060;-85
2022/10/22 06:41:42;;;;;;;18.80;10.25;;;;;;;;;;8381516;28;20052;-85
2022/10/22 06:45:44;;;;;;;18.10;10.90;;;;;;;;;;8383260;28;20041;-85
2022/10/22 06:49:49;;;;;;;16.80;10.23;;;;;;;;;;8371015;28;20054;-86
2022/10/22 06:53:51;;;;;;;17.23;9.10;;;;;;;;;;8370964;28;20070;-85
2022/10/22 06:57:55;;;;;;;16.13;8.10;;;;;;;;;;8367280;28;20049;-86
2022/10/22 07:01:58;;;;;;;13.35;8.48;;;;;;;;;;8395505;28;20100;-85
2022/10/22 07:06:00;;;;;;;13.00;8.30;;;;;;;;;;8361031;28;20065;-86
2022/10/22 07:10:03;;;;;;;18.00;8.68;;;;;;;;;;8363509;28;20107;-87
2022/10/22 07:14:07;;;;;;;14.40;8.35;;;;;;;;;;8361864;28;20049;-86
2022/10/22 07:18:10;;;;;;;13.73;8.25;;;;;;;;;;8363457;28;20412;-87
2022/10/22 07:22:13;;;;;;;13.82;7.75;;;;;;;;;;8363706;28;20056;-86
2022/10/22 07:26:20;;;;;;;12.15;7.53;;;;;;;;;;8375125;28;20091;-88
2022/10/22 07:30:24;;;;;;;14.98;8.13;;;;;;;;;;8364799;28;20115;-87
2022/10/22 07:34:26;;;;;;;13.82;7.93;;;;;;;;;;8372377;28;20431;-87
2022/10/22 07:38:30;;;;;;;13.48;8.20;;;;;;;;;;8346350;28;20124;-87
2022/10/22 07:42:32;;;;;;;14.63;7.65;;;;;;;;;;8360717;28;20115;-84
2022/10/22 07:46:36;;;;;;;17.08;8.70;;;;;;;;;;8358426;28;20060;-86
2022/10/22 07:50:39;;;;;;;19.20;8.95;;;;;;;;;;8354782;28;20216;-83
2022/10/22 07:54:41;;;;;;;16.63;8.10;;;;;;;;;;8360200;28;20080;-82
2022/10/22 07:58:43;;;;;;;13.95;7.68;;;;;;;;;;8365926;28;20103;-82
2022/10/22 08:02:47;;;;;;;13.77;8.15;;;;;;;;;;8365963;28;20045;-82
2022/10/22 08:06:50;;;;;;;12.00;6.30;;;;;;;;;;8377891;28;20392;-85
2022/10/22 08:10:52;;;;;;;158.63;46.22;;;;;;;;;;8363662;28;20057;-88
2022/10/22 08:14:55;;;;;;;13.18;8.25;;;;;;;;;;8357036;28;20048;-88
2022/10/22 08:18:59;;;;;;;26.02;12.35;;;;;;;;;;8355648;28;20045;-86
2022/10/22 08:23:02;;;;;;;15.70;8.82;;;;;;;;;;8362523;28;20064;-83
2022/10/22 08:27:05;;;;;;;16.85;7.75;;;;;;;;;;8365945;28;20048;-84
2022/10/22 08:31:09;;;;;;;28.50;12.63;;;;;;;;;;8357837;28;20049;-84
2022/10/22 08:35:13;;;;;;;27.08;10.15;;;;;;;;;;8368826;28;20511;-85
2022/10/22 08:39:17;;;;;;;18.55;9.48;;;;;;;;;;8363200;28;20052;-85
2022/10/22 08:43:56;;;;;;;152.73;32.42;;;;;;;;;;8359976;28;20048;-85
2022/10/22 08:48:19;;;;;;;16.02;9.05;;;;;;;;;;8357884;28;20053;-84
2022/10/22 08:52:25;;;;;;;16.45;8.95;;;;;;;;;;8362909;28;20147;-86
2022/10/22 08:56:29;;;;;;;17.92;8.68;;;;;;;;;;8378661;28;20056;-84
2022/10/22 09:00:35;;;;;;;23.85;10.13;;;;;;;;;;8358056;28;20243;-86
2022/10/22 09:04:44;;;;;;;18.88;9.77;;;;;;;;;;8361999;28;20480;-86
2022/10/22 09:08:49;;;;;;;44.38;24.08;;;;;;;;;;8352034;28;20057;-84
2022/10/22 09:12:54;;;;;;;42.30;23.17;;;;;;;;;;8373939;28;20053;-87
2022/10/22 09:17:15;;;;;;;17.67;11.15;;;;;;;;;;8345670;28;20437;-85
2022/10/22 09:21:24;;;;;;;42.67;18.77;;;;;;;;;;8347164;28;20041;-86
2022/10/22 09:25:32;;;;;;;20.85;10.25;;;;;;;;;;8372197;28;20072;-86
2022/10/22 09:29:35;;;;;;;15.05;8.93;;;;;;;;;;8355664;28;20477;-85
2022/10/22 09:33:37;;;;;;;11.30;7.10;;;;;;;;;;8364415;28;20045;-89
2022/10/22 09:37:49;;;;;;;11.52;7.95;;;;;;;;;;8348605;28;20044;-85
2022/10/22 09:41:54;;;;;;;12.38;7.63;;;;;;;;;;8381196;28;20044;-86
2022/10/22 09:46:00;;;;;;;11.48;7.65;;;;;;;;;;8377598;28;20059;-88
2022/10/22 09:50:18;;;;;;;22.65;11.70;;;;;;;;;;8358427;28;20047;-86
2022/10/22 09:54:23;;;;;;;17.70;10.80;;;;;;;;;;8349232;28;20074;-85
2022/10/22 09:58:27;;;;;;;27.85;15.93;;;;;;;;;;8356764;28;20444;-88
2022/10/22 10:02:31;;;;;;;17.50;11.15;;;;;;;;;;8372388;28;20108;-87
2022/10/22 10:06:35;;;;;;;19.80;8.70;;;;;;;;;;8341234;28;20124;-86
2022/10/22 10:10:45;;;;;;;15.05;9.02;;;;;;;;;;8345470;28;20483;-85
2022/10/22 10:14:58;;;;;;;26.02;15.95;;;;;;;;;;8354677;28;20393;-85
2022/10/22 10:19:23;;;;;;;17.50;9.50;;;;;;;;;;8370879;28;20048;-86
2022/10/22 10:23:35;;;;;;;15.43;9.43;;;;;;;;;;8359013;28;20041;-85
2022/10/22 10:27:48;;;;;;;14.32;8.82;;;;;;;;;;8341591;28;20114;-86
2022/10/22 10:32:07;;;;;;;16.15;10.30;;;;;;;;;;8349887;28;20080;-85
2022/10/22 10:36:16;;;;;;;18.08;10.68;;;;;;;;;;8362932;28;20044;-84
2022/10/22 10:40:29;;;;;;;15.05;8.90;;;;;;;;;;8371416;28;20128;-86
2022/10/22 10:44:48;;;;;;;14.77;8.65;;;;;;;;;;8366839;28;20407;-85
2022/10/22 10:48:59;;;;;;;16.23;9.13;;;;;;;;;;8363563;28;20787;-85
2022/10/22 10:53:14;;;;;;;14.63;8.77;;;;;;;;;;8353867;28;20061;-87
2022/10/22 10:57:32;;;;;;;16.17;9.10;;;;;;;;;;8359036;28;20624;-85
2022/10/22 11:01:45;;;;;;;14.90;8.43;;;;;;;;;;8365449;28;20052;-85
2022/10/22 11:05:53;;;;;;;15.63;8.18;;;;;;;;;;8395491;28;20460;-84
2022/10/22 11:10:02;;;;;;;15.02;8.13;;;;;;;;;;8395419;28;20044;-88
2022/10/22 11:14:14;;;;;;;13.60;8.32;;;;;;;;;;8395451;28;20041;-84
2022/10/22 11:18:24;;;;;;;18.42;8.93;;;;;;;;;;8395101;28;20452;-86
2022/10/22 11:22:32;;;;;;;16.88;9.18;;;;;;;;;;8376888;28;20119;-86
2022/10/22 11:26:41;;;;;;;19.63;9.38;;;;;;;;;;8395361;28;20049;-85
2022/10/22 11:30:46;;;;;;;13.50;7.93;;;;;;;;;;8364680;28;20396;-85
2022/10/22 11:34:53;;;;;;;13.82;7.28;;;;;;;;;;8362388;28;20466;-88
2022/10/22 11:38:57;;;;;;;15.20;8.38;;;;;;;;;;8361851;28;20527;-84
2022/10/22 11:43:04;;;;;;;14.60;9.43;;;;;;;;;;8367441;28;20048;-89
2022/10/22 11:47:18;;;;;;;14.70;8.40;;;;;;;;;;8394809;28;20040;-85
2022/10/22 11:51:34;;;;;;;14.27;8.30;;;;;;;;;;8394741;28;20094;-85
2022/10/22 11:55:47;;;;;;;18.05;11.23;;;;;;;;;;8376189;28;20488;-84
2022/10/22 11:59:52;;;;;;;16.42;10.15;;;;;;;;;;8394353;28;20161;-88
2022/10/22 12:04:17;;;;;;;15.23;8.70;;;;;;;;;;8361314;28;20037;-86
2022/10/22 12:08:26;;;;;;;17.95;9.50;;;;;;;;;;8356205;28;20543;-85
2022/10/22 12:12:39;;;;;;;18.42;10.05;;;;;;;;;;8363619;28;20124;-89
2022/10/22 12:16:45;;;;;;;17.33;9.98;;;;;;;;;;8373542;28;20053;-88
2022/10/22 12:20:50;;;;;;;18.70;10.80;;;;;;;;;;8361420;28;20040;-87
2022/10/22 12:24:56;;;;;;;17.55;10.13;;;;;;;;;;8366370;28;20044;-87
2022/10/22 12:29:00;;;;;;;19.90;10.52;;;;;;;;;;8395532;28;20056;-85
2022/10/22 12:33:06;;;;;;;18.40;12.07;;;;;;;;;;8392596;28;20048;-89
2022/10/22 12:37:11;;;;;;;22.05;12.40;;;;;;;;;;8394856;28;20052;-87
2022/10/22 12:41:14;;;;;;;25.75;14.65;;;;;;;;;;8355485;28;20120;-85
2022/10/22 12:45:18;;;;;;;45.75;22.33;;;;;;;;;;8361785;28;20040;-84
2022/10/22 12:49:22;;;;;;;16.02;10.63;;;;;;;;;;8377975;28;20415;-85
2022/10/22 12:53:30;;;;;;;97.10;40.00;;;;;;;;;;8371127;28;20057;-85
2022/10/22 12:57:33;;;;;;;21.77;13.00;;;;;;;;;;8368120;28;20040;-91
2022/10/22 13:01:39;;;;;;;20.08;10.68;;;;;;;;;;8377270;28;20127;-87
2022/10/22 13:05:42;;;;;;;21.73;13.07;;;;;;;;;;8376426;28;20404;-85
2022/10/22 13:09:47;;;;;;;25.00;14.68;;;;;;;;;;8357765;28;20045;-85
2022/10/22 13:14:04;;;;;;;27.90;16.38;;;;;;;;;;8360572;28;20115;-86
2022/10/22 13:18:29;;;;;;;19.38;12.52;;;;;;;;;;8367323;28;20045;-86
2022/10/22 13:22:46;;;;;;;25.95;13.82;;;;;;;;;;8351931;28;20130;-85
2022/10/22 13:27:06;;;;;;;20.80;13.57;;;;;;;;;;8357995;28;20054;-85
2022/10/22 13:31:28;;;;;;;22.05;12.55;;;;;;;;;;8348937;28;20044;-84
2022/10/22 13:35:37;;;;;;;22.38;13.82;;;;;;;;;;8373770;28;20548;-85
2022/10/22 13:39:40;;;;;;;18.60;11.45;;;;;;;;;;8373596;28;20131;-85
2022/10/22 13:43:47;;;;;;;17.90;10.40;;;;;;;;;;8359455;28;20488;-86
2022/10/22 13:47:55;;;;;;;14.77;9.75;;;;;;;;;;8371580;28;20037;-86
2022/10/22 13:51:59;;;;;;;21.02;13.52;;;;;;;;;;8358528;28;20052;-87
2022/10/22 13:56:03;;;;;;;20.15;12.35;;;;;;;;;;8374406;28;20456;-86
2022/10/22 14:00:07;;;;;;;29.52;17.00;;;;;;;;;;8348601;28;20088;-84
2022/10/22 14:04:13;;;;;;;21.45;12.32;;;;;;;;;;8372318;28;20041;-85
2022/10/22 14:08:24;;;;;;;65.22;24.10;;;;;;;;;;8372197;28;20048;-84
2022/10/22 14:12:39;;;;;;;47.88;22.30;;;;;;;;;;8357455;28;20060;-85
2022/10/22 14:16:49;;;;;;;50.88;20.92;;;;;;;;;;8351595;28;20143;-87
2022/10/22 14:20:59;;;;;;;41.15;16.40;;;;;;;;;;8341426;28;20903;-85
2022/10/22 14:25:18;;;;;;;45.15;19.15;;;;;;;;;;8367929;28;20135;-86
2022/10/22 14:29:33;;;;;;;21.83;12.65;;;;;;;;;;8352421;28;20115;-85
2022/10/22 14:33:39;;;;;;;39.63;18.27;;;;;;;;;;8354653;28;20048;-86
2022/10/22 14:37:44;;;;;;;33.28;17.90;;;;;;;;;;8357585;28;20420;-86
2022/10/22 14:41:51;;;;;;;21.48;12.73;;;;;;;;;;8384072;28;20071;-85
2022/10/22 14:46:00;;;;;;;147.68;43.08;;;;;;;;;;8359057;28;20049;-86
2022/10/22 14:50:12;;;;;;;158.07;46.20;;;;;;;;;;8360780;28;20047;-86
2022/10/22 14:54:22;;;;;;;25.17;14.63;;;;;;;;;;8371465;28;20420;-87
2022/10/22 14:58:32;;;;;;;79.70;31.15;;;;;;;;;;8355017;28;20140;-85
2022/10/22 15:02:43;;;;;;;46.50;26.38;;;;;;;;;;8360584;28;20519;-86
2022/10/22 15:06:55;;;;;;;75.00;38.70;;;;;;;;;;8352285;28;20044;-85
2022/10/22 15:11:10;;;;;;;25.35;17.35;;;;;;;;;;8349681;28;20096;-85
2022/10/22 15:15:16;;;;;;;23.90;14.18;;;;;;;;;;8354507;28;20136;-88
2022/10/22 15:19:30;;;;;;;31.33;19.67;;;;;;;;;;8342839;28;20048;-86
2022/10/22 15:23:39;;;;;;;27.48;15.88;;;;;;;;;;8351809;28;20053;-86
2022/10/22 15:27:55;;;;;;;22.00;12.30;;;;;;;;;;8346937;28;20048;-85
2022/10/22 15:32:27;;;;;;;25.50;15.68;;;;;;;;;;8362997;28;20052;-85
2022/10/22 15:36:42;;;;;;;24.08;13.80;;;;;;;;;;8365345;28;20041;-85
2022/10/22 15:40:45;;;;;;;25.90;15.00;;;;;;;;;;8377674;28;20052;-85
2022/10/22 15:44:51;;;;;;;35.03;19.33;;;;;;;;;;8366536;28;20151;-85
2022/10/22 15:49:03;;;;;;;25.88;14.02;;;;;;;;;;8372545;28;20044;-87
2022/10/22 15:53:11;;;;;;;23.65;13.27;;;;;;;;;;8376555;28;20069;-84
2022/10/22 15:57:14;;;;;;;37.72;19.92;;;;;;;;;;8370868;28;20613;-85
2022/10/22 16:01:17;;;;;;;30.40;16.73;;;;;;;;;;8382731;28;20056;-86
2022/10/22 16:05:21;;;;;;;29.33;17.25;;;;;;;;;;8365737;28;20098;-85
2022/10/22 16:09:28;;;;;;;31.23;18.40;;;;;;;;;;8363095;28;20080;-85
2022/10/22 16:13:36;;;;;;;39.42;20.27;;;;;;;;;;8355891;28;20045;-84
2022/10/22 16:17:39;;;;;;;40.47;25.55;;;;;;;;;;8361727;28;20575;-85
2022/10/22 16:21:44;;;;;;;31.00;16.90;;;;;;;;;;8352621;28;20049;-85
2022/10/22 16:25:48;;;;;;;35.20;18.55;;;;;;;;;;8358098;28;20488;-85
2022/10/22 16:29:50;;;;;;;33.20;19.73;;;;;;;;;;8354269;28;20041;-85
2022/10/22 16:34:22;;;;;;;42.90;22.70;;;;;;;;;;8359368;28;20044;-85
2022/10/22 16:38:53;;;;;;;42.47;23.17;;;;;;;;;;8356380;28;20064;-86
2022/10/22 16:43:02;;;;;;;50.92;27.05;;;;;;;;;;8357349;28;20052;-86
2022/10/22 16:47:10;;;;;;;60.70;31.00;;;;;;;;;;8367631;28;20053;-84
2022/10/22 16:51:20;;;;;;;58.10;29.13;;;;;;;;;;8373939;28;20049;-86
2022/10/22 16:55:49;;;;;;;53.38;29.35;;;;;;;;;;8331917;28;20662;-84
2022/10/22 17:00:09;;;;;;;67.57;36.05;;;;;;;;;;8340287;28;20053;-83
2022/10/22 17:04:12;;;;;;;63.28;34.15;;;;;;;;;;8271906;28;20060;-87
2022/10/22 17:08:15;;;;;;;51.25;31.08;;;;;;;;;;8288147;28;20058;-85
2022/10/22 17:12:20;;;;;;;37.60;22.58;;;;;;;;;;8284321;28;20512;-84
2022/10/22 17:16:24;;;;;;;36.55;21.90;;;;;;;;;;8289467;28;20545;-84
2022/10/22 17:20:27;;;;;;;46.00;27.77;;;;;;;;;;8284107;28;20050;-84
2022/10/22 17:24:30;;;;;;;46.25;26.83;;;;;;;;;;8283650;28;20046;-85
2022/10/22 17:28:36;;;;;;;44.97;23.50;;;;;;;;;;8287472;28;20049;-84
2022/10/22 17:32:39;;;;;;;43.22;24.20;;;;;;;;;;8288253;28;20476;-84
2022/10/22 17:36:43;;;;;;;45.05;27.85;;;;;;;;;;8288105;28;20073;-85
2022/10/22 17:40:45;;;;;;;45.28;26.33;;;;;;;;;;8290316;28;20050;-86
2022/10/22 17:44:49;;;;;;;46.80;26.10;;;;;;;;;;8284847;28;20477;-85
2022/10/22 17:48:53;;;;;;;56.40;28.73;;;;;;;;;;8290798;28;20133;-84
2022/10/22 17:52:57;;;;;;;51.92;29.88;;;;;;;;;;8287578;28;20050;-84
2022/10/22 17:56:59;;;;;;;49.50;27.08;;;;;;;;;;8321058;28;20095;-86
2022/10/22 18:01:04;;;;;;;60.85;31.58;;;;;;;;;;8336480;28;20045;-84
2022/10/22 18:05:07;;;;;;;51.80;26.58;;;;;;;;;;8354774;28;20069;-84
2022/10/22 18:09:14;;;;;;;53.80;28.85;;;;;;;;;;8332118;28;20045;-85
2022/10/22 18:13:19;;;;;;;65.20;31.23;;;;;;;;;;8322116;28;20041;-86
2022/10/22 18:17:26;;;;;;;58.13;28.35;;;;;;;;;;8328788;28;20061;-89
2022/10/22 18:21:36;;;;;;;53.47;25.38;;;;;;;;;;8324670;28;20045;-90
2022/10/22 18:25:41;;;;;;;45.50;24.75;;;;;;;;;;8309028;28;20049;-87
2022/10/22 18:29:45;;;;;;;51.15;25.98;;;;;;;;;;8324703;28;20076;-86
2022/10/22 18:33:50;;;;;;;43.78;24.15;;;;;;;;;;8331496;28;20120;-84
2022/10/22 18:37:53;;;;;;;42.85;23.35;;;;;;;;;;8332102;28;20048;-84
2022/10/22 18:41:56;;;;;;;41.08;22.40;;;;;;;;;;8324615;28;20060;-89
2022/10/22 18:45:58;;;;;;;40.38;19.65;;;;;;;;;;8336532;28;20049;-90
2022/10/22 18:50:03;;;;;;;40.15;20.75;;;;;;;;;;8329875;28;20103;-88
2022/10/22 18:58:29;;;;;;;32.90;18.60;;;;;;;;;;8321341;28;20049;-85
2022/10/22 19:02:31;;;;;;;32.40;18.08;;;;;;;;;;8323424;28;20092;-86
2022/10/22 19:06:36;;;;;;;29.00;16.52;;;;;;;;;;8325039;28;20041;-89
2022/10/22 19:10:40;;;;;;;28.50;15.35;;;;;;;;;;8324136;28;20056;-90
2022/10/22 19:14:48;;;;;;;31.92;17.83;;;;;;;;;;8319451;28;20076;-87
2022/10/22 19:18:52;;;;;;;35.47;16.95;;;;;;;;;;8349188;28;20048;-88
2022/10/22 19:22:56;;;;;;;41.53;20.45;;;;;;;;;;8347954;28;20056;-85
2022/10/22 19:26:59;;;;;;;42.25;19.42;;;;;;;;;;8334310;28;20041;-84
2022/10/22 19:31:05;;;;;;;42.63;18.80;;;;;;;;;;8361928;28;20041;-85
2022/10/22 19:35:08;;;;;;;37.95;17.92;;;;;;;;;;8336721;28;20046;-84
2022/10/22 19:39:15;;;;;;;47.88;20.15;;;;;;;;;;8358710;28;20049;-86
2022/10/22 19:43:18;;;;;;;56.15;21.95;;;;;;;;;;8361605;28;20044;-85
2022/10/22 19:47:21;;;;;;;49.58;21.30;;;;;;;;;;8361725;28;20127;-90
2022/10/22 19:51:25;;;;;;;44.95;19.52;;;;;;;;;;8361514;28;20045;-85
2022/10/22 19:55:30;;;;;;;56.35;21.15;;;;;;;;;;8361398;28;20081;-85
2022/10/22 19:59:33;;;;;;;55.72;22.92;;;;;;;;;;8361643;28;20041;-89
2022/10/22 20:03:37;;;;;;;53.53;21.38;;;;;;;;;;8361457;28;20073;-85
2022/10/22 20:07:40;;;;;;;53.20;21.50;;;;;;;;;;8361444;28;20059;-85
2022/10/22 20:11:44;;;;;;;46.22;17.88;;;;;;;;;;8361125;28;20400;-85
2022/10/22 20:15:48;;;;;;;44.45;18.83;;;;;;;;;;8363685;28;20404;-85
2022/10/22 20:19:51;;;;;;;57.95;20.27;;;;;;;;;;8367128;28;20053;-85
2022/10/22 20:23:55;;;;;;;55.30;20.88;;;;;;;;;;8353384;28;20047;-88
2022/10/22 20:27:59;;;;;;;58.92;20.48;;;;;;;;;;8366857;28;20408;-88
2022/10/22 20:32:02;;;;;;;55.00;18.00;;;;;;;;;;8366863;28;20135;-87
2022/10/22 20:36:07;;;;;;;49.70;19.45;;;;;;;;;;8366599;28;20127;-86
2022/10/22 20:40:11;;;;;;;46.38;17.33;;;;;;;;;;8357757;28;20033;-86
2022/10/22 20:44:18;;;;;;;41.17;17.33;;;;;;;;;;8354504;28;20041;-85
2022/10/22 20:48:21;;;;;;;44.28;18.10;;;;;;;;;;8366387;28;20481;-89
2022/10/22 20:52:23;;;;;;;44.22;18.40;;;;;;;;;;8366114;28;20081;-87
2022/10/22 20:56:27;;;;;;;36.63;16.92;;;;;;;;;;8365731;28;20073;-85
2022/10/22 21:00:34;;;;;;;28.52;13.43;;;;;;;;;;8365875;28;20048;-86
2022/10/22 21:04:37;;;;;;;40.05;17.45;;;;;;;;;;8351746;28;20067;-86
2022/10/22 21:08:39;;;;;;;29.35;15.40;;;;;;;;;;8337600;28;20079;-86
2022/10/22 21:12:42;;;;;;;31.02;15.52;;;;;;;;;;8365455;28;20091;-86
2022/10/22 21:16:49;;;;;;;32.60;15.32;;;;;;;;;;8348226;28;20037;-85
2022/10/22 21:20:51;;;;;;;31.20;13.93;;;;;;;;;;8331985;28;20386;-87
2022/10/22 21:24:54;;;;;;;27.92;14.23;;;;;;;;;;8356342;28;20052;-86
2022/10/22 21:28:56;;;;;;;25.92;13.82;;;;;;;;;;8364952;28;20095;-86
2022/10/22 21:33:00;;;;;;;26.75;13.02;;;;;;;;;;8365574;28;20480;-85
2022/10/22 21:37:03;;;;;;;26.25;14.00;;;;;;;;;;8364933;28;20053;-86
2022/10/22 21:41:06;;;;;;;24.42;12.20;;;;;;;;;;8364617;28;20037;-85
2022/10/22 21:45:09;;;;;;;28.98;13.85;;;;;;;;;;8362324;28;20044;-86
2022/10/22 21:49:13;;;;;;;28.10;14.30;;;;;;;;;;8342496;28;20489;-86
2022/10/22 21:53:15;;;;;;;27.38;15.82;;;;;;;;;;8336259;28;20064;-86
2022/10/22 21:57:18;;;;;;;27.25;13.60;;;;;;;;;;8342162;28;20049;-85
2022/10/22 22:01:20;;;;;;;30.92;14.43;;;;;;;;;;8358255;28;20053;-86
2022/10/22 22:05:25;;;;;;;28.75;14.40;;;;;;;;;;8364362;28;20051;-87
2022/10/22 22:09:27;;;;;;;30.42;14.43;;;;;;;;;;8364094;28;20107;-85
2022/10/22 22:13:30;;;;;;;34.17;15.40;;;;;;;;;;8363393;28;20040;-88
2022/10/22 22:17:32;;;;;;;27.77;14.30;;;;;;;;;;8363495;28;20469;-88
2022/10/22 22:21:38;;;;;;;29.65;16.08;;;;;;;;;;8352313;28;20116;-85
2022/10/22 22:25:41;;;;;;;37.40;17.27;;;;;;;;;;8330574;28;20076;-86
2022/10/22 22:29:43;;;;;;;33.15;15.68;;;;;;;;;;8324238;28;20044;-85
2022/10/22 22:33:46;;;;;;;31.95;15.57;;;;;;;;;;8363226;28;20048;-86
2022/10/22 22:37:50;;;;;;;32.58;14.82;;;;;;;;;;8362573;28;20049;-86
2022/10/22 22:41:52;;;;;;;34.88;15.98;;;;;;;;;;8363403;28;20552;-87
2022/10/22 22:46:02;;;;;;;33.78;14.63;;;;;;;;;;8333339;28;20382;-86
2022/10/22 22:50:04;;;;;;;35.38;15.48;;;;;;;;;;8350739;28;20045;-86
2022/10/22 22:54:09;;;;;;;30.33;14.18;;;;;;;;;;8362368;28;20574;-86
2022/10/22 22:58:11;;;;;;;38.72;15.50;;;;;;;;;;8362510;28;20047;-87
2022/10/22 23:02:14;;;;;;;34.08;15.60;;;;;;;;;;8362444;28;20045;-86
2022/10/22 23:06:17;;;;;;;36.15;15.70;;;;;;;;;;8362487;28;20131;-86
2022/10/22 23:10:21;;;;;;;37.88;16.42;;;;;;;;;;8362338;28;20052;-89
2022/10/22 23:14:23;;;;;;;38.03;16.13;;;;;;;;;;8362189;28;20481;-90
2022/10/22 23:18:26;;;;;;;40.10;16.92;;;;;;;;;;8362311;28;20115;-86
2022/10/22 23:22:28;;;;;;;39.97;15.82;;;;;;;;;;8344049;28;20047;-89
2022/10/22 23:26:34;;;;;;;36.40;14.65;;;;;;;;;;8362535;28;20479;-91
2022/10/22 23:30:42;;;;;;;35.33;15.50;;;;;;;;;;8362150;28;20045;-86
2022/10/22 23:34:44;;;;;;;36.95;15.80;;;;;;;;;;8361891;28;20041;-86
2022/10/22 23:38:47;;;;;;;38.83;16.65;;;;;;;;;;8361969;28;20049;-87
2022/10/22 23:42:51;;;;;;;40.50;16.30;;;;;;;;;;8340850;28;20041;-86
2022/10/22 23:46:55;;;;;;;48.85;17.60;;;;;;;;;;8361705;28;20053;-86
2022/10/22 23:50:58;;;;;;;48.72;17.88;;;;;;;;;;8364246;28;20049;-85
2022/10/22 23:55:00;;;;;;;49.17;17.67;;;;;;;;;;8367768;28;20118;-86
2022/10/22 23:59:04;;;;;;;50.70;19.13;;;;;;;;;;8367988;28;20552;-85
